Time;durP1;ratioP1;P1;durP2;ratioP2;P2;SDS_P1;SDS_P2;PMS_P1;PMS_P2;Temp;Humidity;BMP_temperature;BMP_pressure;BME280_temperature;BME280_humidity;BME280_pressure;Samples;Min_cycle;Max_cycle;Signal;HPM_P1;HPM_P2
2022/11/07 00:01:36;;;;;;;6.95;2.92;;;27.10;63.60;;;;;;5028018;28;20018;-63
2022/11/07 00:04:04;;;;;;;8.63;3.10;;;27.40;65.10;;;;;;5028820;28;20113;-61
2022/11/07 00:06:31;;;;;;;5.53;2.75;;;27.90;64.00;;;;;;5024440;28;20127;-62
2022/11/07 00:08:59;;;;;;;8.63;3.20;;;27.70;59.60;;;;;;5032687;28;20021;-61
2022/11/07 00:11:26;;;;;;;7.57;2.97;;;27.20;62.20;;;;;;5034597;28;20030;-62
2022/11/07 00:13:54;;;;;;;6.55;3.50;;;27.00;65.30;;;;;;5039721;28;20022;-62
2022/11/07 00:16:21;;;;;;;8.70;3.85;;;27.00;63.20;;;;;;5024552;28;20048;-62
2022/11/07 00:18:49;;;;;;;7.60;3.05;;;26.80;64.10;;;;;;5025657;28;20075;-61
2022/11/07 00:21:16;;;;;;;7.13;2.92;;;26.80;64.60;;;;;;5032809;28;20047;-63
2022/11/07 00:23:43;;;;;;;6.43;3.08;;;26.90;66.00;;;;;;5028473;28;20318;-63
2022/11/07 00:26:12;;;;;;;6.72;2.75;;;27.20;65.80;;;;;;5029656;28;20045;-62
2022/11/07 00:28:42;;;;;;;4.88;2.63;;;27.60;62.00;;;;;;5036380;28;20025;-62
2022/11/07 00:31:12;;;;;;;6.32;2.72;;;27.60;62.30;;;;;;5026774;28;20114;-63
2022/11/07 00:33:40;;;;;;;7.32;3.30;;;27.50;62.40;;;;;;5025968;28;20061;-64
2022/11/07 00:36:08;;;;;;;7.13;3.30;;;27.30;63.30;;;;;;5041480;28;20036;-65
2022/11/07 00:38:36;;;;;;;5.38;3.20;;;27.10;62.20;;;;;;5032199;28;20040;-64
2022/11/07 00:41:06;;;;;;;8.27;3.05;;;26.90;61.40;;;;;;5029822;28;20033;-64
2022/11/07 00:43:34;;;;;;;6.30;3.13;;;26.80;64.00;;;;;;5028574;28;20021;-63
2022/11/07 00:46:07;;;;;;;6.30;2.85;;;26.70;63.40;;;;;;5029553;28;20033;-63
2022/11/07 00:48:35;;;;;;;11.90;3.45;;;26.50;64.40;;;;;;5031416;28;20156;-64
2022/11/07 00:51:06;;;;;;;6.97;3.25;;;26.40;64.40;;;;;;5037742;28;20094;-64
2022/11/07 00:53:34;;;;;;;10.65;3.22;;;26.30;64.10;;;;;;5033466;28;20091;-64
2022/11/07 00:56:07;;;;;;;6.22;2.80;;;26.30;65.90;;;;;;5031019;28;20171;-65
2022/11/07 00:58:38;;;;;;;5.47;2.35;;;26.40;66.00;;;;;;5030681;28;20384;-65
2022/11/07 01:01:28;;;;;;;7.90;2.75;;;26.60;66.70;;;;;;5025828;28;20025;-64
2022/11/07 01:06:42;;;;;;;6.63;2.72;;;26.30;64.50;;;;;;5033570;28;20048;-64
2022/11/07 01:09:12;;;;;;;9.15;3.08;;;26.30;64.70;;;;;;5039626;28;20034;-64
2022/11/07 01:11:41;;;;;;;8.38;3.47;;;26.20;63.60;;;;;;5029564;28;20518;-64
2022/11/07 01:14:09;;;;;;;7.38;2.85;;;26.10;64.20;;;;;;5031824;28;20061;-63
2022/11/07 01:16:37;;;;;;;6.53;3.47;;;25.90;64.90;;;;;;5029944;28;20501;-64
2022/11/07 01:19:05;;;;;;;5.97;2.63;;;25.90;66.10;;;;;;5023910;28;20374;-63
2022/11/07 01:21:33;;;;;;;7.38;2.92;;;25.90;66.30;;;;;;5031416;28;20036;-63
2022/11/07 01:24:02;;;;;;;8.93;3.53;;;26.00;65.90;;;;;;5026423;28;20029;-63
2022/11/07 01:26:29;;;;;;;9.07;3.10;;;25.90;65.70;;;;;;5030389;28;20465;-64
2022/11/07 01:28:57;;;;;;;8.88;3.67;;;25.80;66.10;;;;;;5027356;28;20364;-63
2022/11/07 01:31:24;;;;;;;9.32;3.92;;;25.60;66.30;;;;;;5028890;28;20021;-64
2022/11/07 01:33:51;;;;;;;12.38;4.03;;;25.40;66.70;;;;;;5029614;28;20049;-63
2022/11/07 01:36:18;;;;;;;5.82;3.20;;;25.10;66.30;;;;;;5034078;28;20032;-63
2022/11/07 01:38:47;;;;;;;10.43;3.67;;;24.80;68.30;;;;;;5019825;28;20398;-63
2022/11/07 01:41:21;;;;;;;12.60;3.38;;;24.60;68.90;;;;;;5021549;28;20040;-64
2022/11/07 01:43:49;;;;;;;6.03;3.45;;;24.50;69.00;;;;;;5036088;28;20112;-64
2022/11/07 01:46:17;;;;;;;10.57;3.40;;;24.30;69.30;;;;;;5025631;28;20021;-63
2022/11/07 01:49:11;;;;;;;8.38;3.08;;;24.20;70.50;;;;;;5027890;28;20021;-63
2022/11/07 01:52:03;;;;;;;12.35;3.92;;;24.30;70.60;;;;;;5031774;28;20116;-64
2022/11/07 01:54:34;;;;;;;12.20;4.30;;;24.60;73.80;;;;;;5036852;28;20133;-63
2022/11/07 01:57:07;;;;;;;7.85;3.25;;;25.20;72.30;;;;;;5023974;28;20507;-65
2022/11/07 01:59:36;;;;;;;10.52;4.03;;;26.00;74.00;;;;;;5024978;28;20072;-65
2022/11/07 02:02:04;;;;;;;7.90;2.55;;;27.00;72.40;;;;;;5027788;28;20033;-64
2022/11/07 02:04:32;;;;;;;6.80;2.75;;;27.40;65.30;;;;;;5026992;28;20478;-65
2022/11/07 02:07:17;;;;;;;6.13;2.90;;;27.60;63.20;;;;;;5029545;28;20120;-66
2022/11/07 02:09:45;;;;;;;5.85;2.47;;;27.70;61.50;;;;;;5023300;28;20434;-64
2022/11/07 02:12:13;;;;;;;5.60;2.15;;;27.40;59.30;;;;;;5032661;28;20040;-62
2022/11/07 02:14:42;;;;;;;4.90;2.17;;;27.20;59.90;;;;;;5034876;28;20488;-63
2022/11/07 02:17:11;;;;;;;7.97;2.85;;;26.90;61.00;;;;;;5048253;28;20031;-63
2022/11/07 02:19:52;;;;;;;6.57;2.95;;;26.70;63.10;;;;;;5035392;28;20718;-64
2022/11/07 02:22:49;;;;;;;6.15;2.30;;;26.50;64.90;;;;;;5024162;28;20457;-64
2022/11/07 02:25:18;;;;;;;6.35;2.42;;;26.60;64.10;;;;;;5035908;28;20099;-64
2022/11/07 02:27:51;;;;;;;5.53;2.70;;;26.90;62.30;;;;;;5034775;28;20028;-63
2022/11/07 02:30:23;;;;;;;4.10;2.73;;;26.80;62.70;;;;;;5034772;28;20103;-62
2022/11/07 02:32:50;;;;;;;4.53;1.83;;;27.50;63.80;;;;;;5043710;28;20470;-63
2022/11/07 02:35:40;;;;;;;7.50;1.95;;;28.10;60.70;;;;;;5036697;28;20025;-63
2022/11/07 02:38:21;;;;;;;5.18;1.70;;;28.20;60.20;;;;;;5043509;28;20112;-63
2022/11/07 02:41:17;;;;;;;4.70;1.60;;;28.50;57.50;;;;;;5029824;28;20083;-63
2022/11/07 02:43:51;;;;;;;4.60;1.52;;;29.40;59.30;;;;;;5028371;28;20021;-63
2022/11/07 02:46:20;;;;;;;8.57;1.50;;;30.40;55.40;;;;;;5044976;28;20116;-63
2022/11/07 02:48:50;;;;;;;3.88;1.20;;;30.40;56.70;;;;;;5023988;28;20053;-64
2022/11/07 02:51:18;;;;;;;4.00;1.77;;;30.40;53.20;;;;;;5026228;28;20077;-64
2022/11/07 02:53:45;;;;;;;4.80;1.77;;;29.40;54.70;;;;;;5020994;28;20473;-63
2022/11/07 02:56:12;;;;;;;7.35;1.30;;;28.90;56.30;;;;;;5028951;28;20029;-63
2022/11/07 02:58:40;;;;;;;4.78;1.17;;;28.00;57.00;;;;;;5028090;28;20293;-64
2022/11/07 03:01:07;;;;;;;5.38;1.60;;;27.30;58.30;;;;;;5024655;28;20022;-62
2022/11/07 03:03:40;;;;;;;7.28;1.30;;;26.80;60.00;;;;;;5027206;28;20021;-67
2022/11/07 03:06:09;;;;;;;5.05;1.25;;;26.30;60.80;;;;;;5028163;28;20736;-64
2022/11/07 03:08:37;;;;;;;6.65;1.35;;;25.90;61.80;;;;;;5026043;28;21400;-62
2022/11/07 03:11:18;;;;;;;5.45;1.52;;;25.60;63.60;;;;;;5026673;28;20028;-63
2022/11/07 03:13:49;;;;;;;2.33;1.10;;;25.40;63.60;;;;;;5029635;28;20101;-62
2022/11/07 03:16:18;;;;;;;5.65;1.77;;;25.50;65.20;;;;;;5032298;28;20021;-62
2022/11/07 03:18:45;;;;;;;5.05;1.23;;;25.90;66.40;;;;;;5025046;28;20059;-63
2022/11/07 03:21:13;;;;;;;5.10;1.23;;;26.40;65.00;;;;;;5020874;28;20029;-62
2022/11/07 03:23:40;;;;;;;2.80;0.98;;;26.60;64.00;;;;;;5023062;28;20112;-62
2022/11/07 03:26:07;;;;;;;7.43;1.65;;;26.90;60.00;;;;;;5039824;28;20033;-63
2022/11/07 03:28:35;;;;;;;4.53;1.33;;;26.90;60.70;;;;;;5029966;28;20367;-63
2022/11/07 03:31:03;;;;;;;5.78;1.05;;;27.10;61.60;;;;;;5045524;28;20025;-63
2022/11/07 03:33:31;;;;;;;6.43;1.25;;;27.80;64.20;;;;;;5026300;28;20045;-62
2022/11/07 03:35:58;;;;;;;2.47;0.70;;;28.30;59.40;;;;;;5024290;28;20467;-62
2022/11/07 03:38:25;;;;;;;6.47;1.10;;;28.40;57.40;;;;;;5024326;28;20544;-62
2022/11/07 03:40:53;;;;;;;5.07;0.90;;;28.60;57.10;;;;;;5024311;28;20057;-62
2022/11/07 03:43:20;;;;;;;2.88;0.70;;;28.50;56.50;;;;;;5042076;28;20033;-62
2022/11/07 03:45:47;;;;;;;4.22;0.70;;;28.40;56.50;;;;;;5024245;28;20053;-62
2022/11/07 03:48:14;;;;;;;4.60;1.10;;;28.20;54.40;;;;;;5028028;28;20485;-62
2022/11/07 03:50:41;;;;;;;4.00;0.73;;;27.80;55.10;;;;;;5029257;28;20048;-62
2022/11/07 03:53:09;;;;;;;3.90;0.60;;;28.10;56.20;;;;;;5031549;28;20071;-62
2022/11/07 03:55:36;;;;;;;2.13;0.50;;;28.30;56.20;;;;;;5027595;28;20029;-63
2022/11/07 03:58:03;;;;;;;4.80;0.70;;;28.00;56.50;;;;;;5034878;28;20358;-62
2022/11/07 04:00:30;;;;;;;3.90;0.52;;;27.30;57.20;;;;;;5033901;28;20030;-63
2022/11/07 04:02:58;;;;;;;3.40;0.93;;;26.80;58.70;;;;;;5026218;28;20482;-62
2022/11/07 04:05:25;;;;;;;3.17;0.60;;;26.60;59.40;;;;;;5028504;28;20033;-64
2022/11/07 04:07:52;;;;;;;4.43;0.65;;;26.10;59.60;;;;;;5026242;28;20029;-63
2022/11/07 04:10:19;;;;;;;1.67;0.50;;;25.70;60.90;;;;;;5028536;28;20026;-63
2022/11/07 04:18:16;;;;;;;1.63;0.50;;;24.60;64.00;;;;;;5030401;28;20064;-63
2022/11/07 04:20:44;;;;;;;9.15;0.70;;;24.30;65.30;;;;;;5024973;28;20017;-63
2022/11/07 04:23:11;;;;;;;2.47;0.73;;;24.10;66.20;;;;;;5035299;28;20113;-63
2022/11/07 04:28:23;;;;;;;1.52;0.40;;;23.60;67.60;;;;;;5023257;28;20073;-63
2022/11/07 04:30:50;;;;;;;8.27;0.75;;;23.50;68.50;;;;;;5027410;28;20033;-63
2022/11/07 04:33:18;;;;;;;1.65;0.50;;;23.40;68.80;;;;;;5034628;28;20017;-63
2022/11/07 04:35:45;;;;;;;2.22;0.63;;;23.40;68.60;;;;;;5030713;28;20040;-63
2022/11/07 04:38:12;;;;;;;4.40;1.27;;;23.40;68.50;;;;;;5032982;28;20053;-63
2022/11/07 04:40:39;;;;;;;4.70;0.85;;;23.50;68.60;;;;;;5031488;28;20024;-63
2022/11/07 04:43:09;;;;;;;5.55;0.73;;;23.90;68.00;;;;;;5038078;28;20029;-63
2022/11/07 04:45:38;;;;;;;7.13;0.90;;;24.00;67.60;;;;;;5040628;28;20037;-63
2022/11/07 04:48:06;;;;;;;7.57;1.20;;;23.90;67.00;;;;;;5032913;28;20025;-65
2022/11/07 04:50:33;;;;;;;3.38;0.52;;;24.00;66.90;;;;;;5048737;28;20025;-64
2022/11/07 04:53:00;;;;;;;4.25;0.82;;;24.00;65.70;;;;;;5037129;28;20103;-63
2022/11/07 04:55:29;;;;;;;3.00;0.50;;;24.10;66.50;;;;;;5038849;28;20117;-64
2022/11/07 04:57:57;;;;;;;3.42;0.60;;;24.30;65.90;;;;;;5037218;28;20028;-64
2022/11/07 05:00:24;;;;;;;6.28;0.50;;;24.40;63.60;;;;;;5036910;28;20138;-64
2022/11/07 05:02:51;;;;;;;4.78;0.85;;;24.60;63.90;;;;;;5032918;28;20068;-63
2022/11/07 05:05:19;;;;;;;6.05;0.50;;;24.80;62.40;;;;;;5037678;28;20029;-64
2022/11/07 05:07:47;;;;;;;3.05;0.98;;;24.90;62.70;;;;;;5033251;28;20095;-64
2022/11/07 05:10:21;;;;;;;2.08;0.40;;;24.70;62.60;;;;;;5033335;28;20032;-64
2022/11/07 05:12:48;;;;;;;2.97;0.30;;;24.40;62.50;;;;;;5033750;28;20124;-64
2022/11/07 05:15:16;;;;;;;5.45;0.70;;;24.70;63.10;;;;;;5038611;28;20025;-63
2022/11/07 05:17:44;;;;;;;1.85;1.60;;;24.80;61.40;;;;;;5025200;28;20036;-65
2022/11/07 05:20:30;;;;;;;4.28;0.80;;;25.00;61.80;;;;;;5033852;28;20040;-63
2022/11/07 05:25:46;;;;;;;2.95;0.63;;;24.60;61.30;;;;;;5031364;28;20090;-63
2022/11/07 05:28:19;;;;;;;7.47;0.50;;;24.60;61.80;;;;;;5046416;28;20032;-64
2022/11/07 05:30:47;;;;;;;2.10;0.70;;;24.70;61.00;;;;;;5021179;28;20401;-63
2022/11/07 05:33:17;;;;;;;3.63;0.60;;;24.60;61.80;;;;;;5042972;28;20021;-63
2022/11/07 05:35:45;;;;;;;4.30;0.50;;;24.60;61.30;;;;;;5034054;28;20029;-63
2022/11/07 05:38:13;;;;;;;2.97;0.60;;;24.50;61.10;;;;;;5034771;28;20025;-64
2022/11/07 05:40:40;;;;;;;4.47;0.45;;;24.50;60.50;;;;;;5047114;28;20032;-63
2022/11/07 05:43:11;;;;;;;2.42;0.60;;;24.50;62.20;;;;;;5035155;28;20025;-64
2022/11/07 05:45:39;;;;;;;1.98;0.60;;;24.70;61.10;;;;;;5039286;28;20177;-64
2022/11/07 05:48:10;;;;;;;1.98;0.43;;;24.80;60.10;;;;;;5045408;28;20085;-64
2022/11/07 05:50:38;;;;;;;1.55;0.40;;;24.90;59.90;;;;;;5033654;28;20037;-63
2022/11/07 05:53:06;;;;;;;2.58;0.40;;;24.80;59.80;;;;;;5037432;28;20045;-64
2022/11/07 05:55:33;;;;;;;3.38;0.77;;;24.70;59.50;;;;;;5029255;28;20478;-64
2022/11/07 05:58:06;;;;;;;3.28;0.60;;;24.70;59.40;;;;;;5029359;28;20068;-63
2022/11/07 06:00:33;;;;;;;1.83;0.47;;;24.30;59.30;;;;;;5037337;28;20013;-64
2022/11/07 06:03:00;;;;;;;2.03;0.50;;;24.20;61.00;;;;;;5029919;28;20029;-63
2022/11/07 06:05:28;;;;;;;5.82;0.47;;;24.20;60.70;;;;;;5027399;28;20030;-64
2022/11/07 06:07:56;;;;;;;1.17;0.30;;;24.20;61.10;;;;;;5035153;28;20117;-63
2022/11/07 06:10:23;;;;;;;2.33;0.40;;;24.20;60.40;;;;;;5027651;28;20025;-64
2022/11/07 06:12:58;;;;;;;0.40;0.30;;;24.30;61.00;;;;;;5037037;28;20033;-64
2022/11/07 06:15:27;;;;;;;1.40;0.45;;;24.40;59.70;;;;;;5026701;28;20524;-64
2022/11/07 06:17:55;;;;;;;2.85;0.60;;;24.50;59.10;;;;;;5028149;28;20156;-64
2022/11/07 06:20:22;;;;;;;3.63;0.75;;;24.60;59.40;;;;;;5027983;28;20037;-65
2022/11/07 06:22:49;;;;;;;1.50;0.40;;;24.50;59.10;;;;;;5027807;28;20060;-63
2022/11/07 06:25:16;;;;;;;4.10;0.73;;;24.50;58.50;;;;;;5027821;28;20061;-64
2022/11/07 06:27:44;;;;;;;5.18;0.60;;;24.30;57.20;;;;;;5027974;28;20021;-63
2022/11/07 06:30:11;;;;;;;3.28;0.40;;;24.20;58.10;;;;;;5025961;28;20034;-64
2022/11/07 06:32:43;;;;;;;2.35;0.30;;;24.00;58.50;;;;;;5044829;28;20037;-64
2022/11/07 06:35:11;;;;;;;0.63;0.30;;;24.00;58.40;;;;;;5026005;28;20029;-64
2022/11/07 06:37:39;;;;;;;1.30;0.47;;;24.00;58.50;;;;;;5019310;28;20063;-63
2022/11/07 06:40:07;;;;;;;1.13;0.35;;;23.90;58.90;;;;;;5027327;28;20063;-64
2022/11/07 06:42:34;;;;;;;1.45;0.38;;;23.90;59.00;;;;;;5027766;28;20026;-63
2022/11/07 06:45:01;;;;;;;1.40;0.35;;;24.00;58.30;;;;;;5028085;28;20041;-63
2022/11/07 06:47:28;;;;;;;4.47;0.60;;;23.90;58.50;;;;;;5027489;28;20022;-64
2022/11/07 06:49:56;;;;;;;2.88;0.47;;;23.80;58.10;;;;;;5025163;28;20032;-65
2022/11/07 06:52:23;;;;;;;2.28;0.60;;;23.60;58.50;;;;;;5022987;28;20402;-64
2022/11/07 06:54:50;;;;;;;3.53;0.63;;;23.60;58.50;;;;;;5024404;28;20021;-64
2022/11/07 06:57:17;;;;;;;2.55;0.30;;;23.50;58.90;;;;;;5026563;28;20021;-64
2022/11/07 06:59:44;;;;;;;1.30;0.50;;;23.30;56.10;;;;;;5024964;28;20115;-64
2022/11/07 07:02:13;;;;;;;1.10;0.40;;;23.10;56.50;;;;;;5024360;28;20123;-64
2022/11/07 07:04:41;;;;;;;1.25;0.40;;;23.00;56.10;;;;;;5029650;28;20104;-64
2022/11/07 07:07:08;;;;;;;2.58;0.40;;;22.80;56.70;;;;;;5024567;28;20037;-63
2022/11/07 07:09:35;;;;;;;0.47;0.30;;;22.80;56.50;;;;;;5026072;28;20025;-63
2022/11/07 07:12:02;;;;;;;2.92;0.95;;;22.70;55.80;;;;;;5029062;28;20030;-63
2022/11/07 07:14:29;;;;;;;5.00;1.02;;;22.70;55.20;;;;;;5027828;28;20026;-64
2022/11/07 07:16:58;;;;;;;0.82;0.35;;;22.50;54.70;;;;;;5026624;28;20056;-64
2022/11/07 07:19:25;;;;;;;2.05;0.70;;;22.50;55.30;;;;;;5023968;28;20036;-65
2022/11/07 07:21:52;;;;;;;3.05;0.50;;;22.30;56.00;;;;;;5024953;28;20026;-65
2022/11/07 07:24:19;;;;;;;0.75;0.30;;;22.20;56.50;;;;;;5023866;28;20025;-64
2022/11/07 07:26:46;;;;;;;2.08;0.70;;;22.00;57.30;;;;;;5021490;28;20061;-64
2022/11/07 07:29:14;;;;;;;1.38;0.30;;;21.90;58.30;;;;;;5029337;28;20029;-67
2022/11/07 07:31:41;;;;;;;1.80;0.40;;;21.70;58.30;;;;;;5026290;28;20033;-64
2022/11/07 07:34:08;;;;;;;2.78;0.50;;;21.60;59.30;;;;;;5025805;28;20026;-64
2022/11/07 07:36:35;;;;;;;1.08;0.40;;;21.50;59.70;;;;;;5036753;28;20021;-64
2022/11/07 07:39:03;;;;;;;3.25;0.50;;;21.40;60.70;;;;;;5033441;28;20144;-64
2022/11/07 07:41:30;;;;;;;2.75;0.35;;;21.20;61.40;;;;;;5029598;28;20146;-64
2022/11/07 07:43:57;;;;;;;1.27;0.30;;;21.00;62.60;;;;;;5028426;28;20033;-63
2022/11/07 07:46:25;;;;;;;2.17;0.40;;;21.00;63.40;;;;;;5018687;28;20574;-63
2022/11/07 07:48:52;;;;;;;1.17;0.47;;;20.80;64.00;;;;;;5024491;28;20082;-63
2022/11/07 07:51:20;;;;;;;1.45;0.40;;;20.70;64.60;;;;;;5020571;28;20079;-64
2022/11/07 07:53:47;;;;;;;2.38;0.50;;;20.60;65.90;;;;;;5025758;28;20040;-64
2022/11/07 07:56:16;;;;;;;1.25;0.82;;;20.50;67.50;;;;;;5026618;28;20592;-64
2022/11/07 07:58:44;;;;;;;7.82;1.48;;;20.40;68.00;;;;;;5042219;28;20508;-63
2022/11/07 08:01:11;;;;;;;5.88;0.65;;;20.30;70.70;;;;;;5032597;28;20071;-62
2022/11/07 08:03:38;;;;;;;2.95;1.15;;;20.10;72.30;;;;;;5033824;28;20026;-63
2022/11/07 08:06:06;;;;;;;3.03;0.45;;;20.10;73.40;;;;;;5032444;28;20041;-63
2022/11/07 08:08:33;;;;;;;0.90;0.40;;;20.00;74.20;;;;;;5032638;28;20034;-63
2022/11/07 08:11:03;;;;;;;3.17;0.60;;;19.90;73.80;;;;;;5033387;28;20032;-63
2022/11/07 08:13:30;;;;;;;2.75;0.50;;;19.70;74.80;;;;;;5030344;28;20049;-65
2022/11/07 08:15:58;;;;;;;1.80;0.40;;;19.70;76.00;;;;;;5037443;28;20694;-62
2022/11/07 08:18:25;;;;;;;4.55;0.75;;;19.50;77.60;;;;;;5030296;28;20485;-63
2022/11/07 08:20:54;;;;;;;2.22;0.47;;;19.40;78.60;;;;;;5035228;28;20025;-63
2022/11/07 08:23:22;;;;;;;1.77;0.47;;;19.30;80.10;;;;;;5022183;28;20030;-62
2022/11/07 08:25:55;;;;;;;1.75;0.52;;;19.20;82.00;;;;;;5040432;28;20072;-62
2022/11/07 08:28:25;;;;;;;2.92;0.70;;;19.10;84.10;;;;;;5032480;28;20028;-61
2022/11/07 08:31:11;;;;;;;2.95;0.60;;;19.00;86.00;;;;;;5026754;28;20350;-63
2022/11/07 08:33:39;;;;;;;3.38;0.77;;;18.90;87.30;;;;;;5028530;28;20060;-62
2022/11/07 08:36:07;;;;;;;3.10;0.57;;;18.80;89.40;;;;;;5029373;28;20132;-63
2022/11/07 08:38:36;;;;;;;2.22;0.52;;;18.70;90.50;;;;;;5037298;28;20128;-63
2022/11/07 08:41:03;;;;;;;3.20;0.60;;;18.50;91.30;;;;;;5035568;28;20131;-62
2022/11/07 08:43:31;;;;;;;4.93;0.60;;;18.40;92.00;;;;;;5032371;28;20849;-61
2022/11/07 08:45:58;;;;;;;9.85;1.00;;;18.30;92.70;;;;;;5042686;28;20037;-61
2022/11/07 08:48:25;;;;;;;2.55;0.70;;;18.20;93.40;;;;;;5031626;28;20179;-60
2022/11/07 08:50:55;;;;;;;2.47;0.70;;;18.00;93.70;;;;;;5031429;28;20028;-61
2022/11/07 08:53:23;;;;;;;5.03;0.77;;;17.90;94.70;;;;;;5036437;28;20045;-61
2022/11/07 08:55:50;;;;;;;4.03;0.80;;;17.90;95.70;;;;;;5040311;28;20108;-61
2022/11/07 08:58:19;;;;;;;3.42;0.60;;;17.90;96.00;;;;;;5028216;28;20033;-61
2022/11/07 09:00:46;;;;;;;6.45;1.50;;;17.90;95.70;;;;;;5023614;28;20113;-61
2022/11/07 09:03:14;;;;;;;12.02;1.25;;;18.00;96.00;;;;;;5036555;28;20452;-61
2022/11/07 09:05:41;;;;;;;4.00;0.60;;;18.00;96.10;;;;;;5043421;28;20041;-61
2022/11/07 09:08:08;;;;;;;4.88;0.80;;;18.00;96.30;;;;;;5033387;28;20105;-61
2022/11/07 09:10:35;;;;;;;3.67;0.90;;;17.90;96.50;;;;;;5043718;28;20032;-62
2022/11/07 09:13:02;;;;;;;5.10;1.02;;;17.80;96.60;;;;;;5029101;28;20398;-61
2022/11/07 09:15:30;;;;;;;6.22;1.92;;;17.80;96.80;;;;;;5029855;28;20032;-61
2022/11/07 09:18:03;;;;;;;7.65;0.82;;;17.70;97.00;;;;;;5030947;28;20033;-61
2022/11/07 09:20:31;;;;;;;3.40;1.02;;;17.60;97.60;;;;;;5043506;28;20029;-61
2022/11/07 09:22:59;;;;;;;5.93;0.90;;;17.50;98.00;;;;;;5039669;28;20041;-62
2022/11/07 09:25:27;;;;;;;5.90;0.80;;;17.50;98.60;;;;;;5036189;28;20075;-61
2022/11/07 09:27:54;;;;;;;3.90;0.90;;;17.40;99.10;;;;;;5028767;28;20022;-61
2022/11/07 09:30:22;;;;;;;5.15;1.02;;;17.40;99.40;;;;;;5042411;28;20091;-60
2022/11/07 09:32:49;;;;;;;5.78;1.25;;;17.30;99.20;;;;;;5028923;28;20441;-61
2022/11/07 09:35:17;;;;;;;2.85;0.90;;;17.30;99.90;;;;;;5028078;28;20029;-61
2022/11/07 09:37:44;;;;;;;4.43;0.73;;;17.30;99.90;;;;;;5027008;28;20013;-60
2022/11/07 09:40:41;;;;;;;2.75;0.90;;;17.30;99.90;;;;;;5022504;28;20474;-61
2022/11/07 09:43:11;;;;;;;8.82;0.80;;;17.20;99.90;;;;;;5027544;28;20539;-60
2022/11/07 09:46:01;;;;;;;7.07;0.80;;;17.20;99.90;;;;;;5026849;28;20212;-61
2022/11/07 09:48:36;;;;;;;4.18;1.17;;;17.10;99.90;;;;;;5028654;28;20021;-61
2022/11/07 09:51:05;;;;;;;4.03;0.77;;;17.10;99.90;;;;;;5023078;28;20116;-61
2022/11/07 09:53:41;;;;;;;4.45;0.73;;;17.00;99.90;;;;;;5031011;28;20462;-61
2022/11/07 09:56:12;;;;;;;5.85;0.70;;;17.00;99.90;;;;;;5025821;28;20028;-61
2022/11/07 09:58:46;;;;;;;3.72;0.70;;;17.00;99.90;;;;;;5023337;28;20032;-61
2022/11/07 10:01:19;;;;;;;1.65;0.70;;;16.90;99.90;;;;;;5020900;28;20056;-61
2022/11/07 10:03:46;;;;;;;4.80;1.50;;;16.90;99.90;;;;;;5024354;28;20025;-61
2022/11/07 10:06:13;;;;;;;5.90;2.20;;;16.80;99.90;;;;;;5021949;28;20033;-61
2022/11/07 10:08:52;;;;;;;5.13;1.92;;;16.70;99.90;;;;;;5027083;28;20021;-62
2022/11/07 10:11:44;;;;;;;5.95;1.95;;;16.70;99.90;;;;;;5029054;28;20036;-60
2022/11/07 10:14:41;;;;;;;10.88;2.40;;;16.60;99.90;;;;;;5029737;28;20550;-61
2022/11/07 10:17:35;;;;;;;6.88;1.63;;;16.60;99.90;;;;;;5016874;28;20498;-61
2022/11/07 10:20:05;;;;;;;8.15;1.92;;;16.50;99.90;;;;;;5025619;28;20037;-61
2022/11/07 10:22:42;;;;;;;6.13;1.67;;;16.50;99.90;;;;;;5024243;28;20032;-59
2022/11/07 10:25:46;;;;;;;5.25;1.52;;;16.40;99.90;;;;;;5026288;28;20029;-60
2022/11/07 10:28:17;;;;;;;6.93;1.05;;;16.40;99.90;;;;;;5024104;28;20022;-61
2022/11/07 10:30:57;;;;;;;3.50;1.10;;;16.40;99.90;;;;;;5013160;28;20579;-60
2022/11/07 10:33:46;;;;;;;3.08;0.90;;;16.40;99.90;;;;;;5034792;28;20817;-59
2022/11/07 10:36:24;;;;;;;2.85;0.75;;;16.30;99.90;;;;;;5026451;28;20036;-59
2022/11/07 10:38:51;;;;;;;5.20;0.90;;;16.20;99.90;;;;;;5024551;28;20467;-60
2022/11/07 10:41:23;;;;;;;5.78;0.75;;;16.20;99.90;;;;;;5026351;28;20619;-60
2022/11/07 10:43:59;;;;;;;2.60;0.90;;;16.10;99.90;;;;;;5025887;28;20097;-60
2022/11/07 10:46:39;;;;;;;7.28;0.90;;;15.90;99.90;;;;;;5027819;28;20037;-60
2022/11/07 10:49:20;;;;;;;5.53;1.05;;;15.80;99.90;;;;;;5022491;28;20028;-60
2022/11/07 10:51:48;;;;;;;5.40;1.50;;;15.70;99.90;;;;;;5020925;28;20080;-60
2022/11/07 10:54:32;;;;;;;3.70;1.05;;;15.50;99.90;;;;;;5039979;28;20506;-60
2022/11/07 10:57:11;;;;;;;4.90;0.98;;;15.50;99.90;;;;;;5023758;28;20038;-60
2022/11/07 10:59:59;;;;;;;2.47;0.90;;;15.40;99.90;;;;;;5034669;28;20032;-60
2022/11/07 11:02:39;;;;;;;8.68;2.28;;;15.40;99.90;;;;;;5031293;28;20026;-60
2022/11/07 11:05:28;;;;;;;2.70;1.00;;;15.40;99.90;;;;;;5025979;28;20072;-60
2022/11/07 11:07:57;;;;;;;4.63;0.85;;;15.40;99.90;;;;;;5025403;28;20091;-62
2022/11/07 11:10:29;;;;;;;4.68;1.02;;;15.60;99.90;;;;;;5025306;28;20025;-62
2022/11/07 11:12:57;;;;;;;2.22;0.85;;;15.50;99.90;;;;;;5025493;28;20026;-61
2022/11/07 11:15:26;;;;;;;3.05;0.80;;;15.40;99.90;;;;;;5029817;28;20409;-61
2022/11/07 11:18:00;;;;;;;5.72;0.80;;;15.30;99.90;;;;;;5029208;28;20047;-61
2022/11/07 11:20:37;;;;;;;4.80;1.58;;;15.20;99.90;;;;;;5025571;28;20021;-61
2022/11/07 11:23:20;;;;;;;5.43;1.75;;;15.10;99.90;;;;;;5026800;28;20037;-62
2022/11/07 11:25:49;;;;;;;3.60;1.25;;;15.00;99.90;;;;;;5033309;28;20448;-61
2022/11/07 11:28:33;;;;;;;4.05;1.10;;;14.90;99.90;;;;;;5022883;28;20018;-60
2022/11/07 11:31:10;;;;;;;6.22;1.23;;;14.80;99.90;;;;;;5025861;28;20025;-61
2022/11/07 11:34:18;;;;;;;6.93;1.00;;;14.70;99.90;;;;;;5028810;28;20040;-61
2022/11/07 11:37:00;;;;;;;7.15;1.20;;;14.60;99.90;;;;;;5014005;28;20017;-60
2022/11/07 11:40:05;;;;;;;2.30;0.70;;;14.50;99.90;;;;;;5025786;28;20374;-61
2022/11/07 11:42:44;;;;;;;2.93;1.17;;;14.40;99.90;;;;;;5032265;28;20108;-61
2022/11/07 11:45:21;;;;;;;4.57;0.88;;;14.30;99.90;;;;;;5036370;28;20025;-60
2022/11/07 11:48:14;;;;;;;2.78;0.70;;;14.20;99.90;;;;;;5033425;28;20029;-60
2022/11/07 11:50:51;;;;;;;4.78;1.23;;;14.10;99.90;;;;;;5031669;28;20037;-61
2022/11/07 11:53:22;;;;;;;2.75;1.05;;;14.00;99.90;;;;;;5042002;28;20095;-63
2022/11/07 11:55:56;;;;;;;8.50;1.20;;;14.00;99.90;;;;;;5032361;28;20040;-60
2022/11/07 11:59:01;;;;;;;3.63;1.00;;;14.00;99.90;;;;;;5031565;28;20026;-60
2022/11/07 12:01:31;;;;;;;2.38;0.75;;;13.90;99.90;;;;;;5042493;28;20429;-60
2022/11/07 12:04:15;;;;;;;6.28;1.40;;;13.80;99.90;;;;;;5031239;28;20397;-60
2022/11/07 12:06:46;;;;;;;5.50;1.92;;;13.70;99.90;;;;;;5034734;28;20040;-60
2022/11/07 12:09:31;;;;;;;7.22;1.30;;;13.60;99.90;;;;;;5032476;28;20452;-59
2022/11/07 12:12:16;;;;;;;2.30;0.70;;;13.50;99.90;;;;;;5029734;28;20024;-60
2022/11/07 12:14:49;;;;;;;3.00;0.60;;;13.50;99.90;;;;;;5028808;28;20029;-59
2022/11/07 12:17:34;;;;;;;3.22;0.82;;;13.50;99.90;;;;;;5027484;28;20060;-60
2022/11/07 12:20:25;;;;;;;6.63;0.73;;;13.40;99.90;;;;;;5032415;28;20029;-60
2022/11/07 12:23:44;;;;;;;6.05;1.00;;;13.40;99.90;;;;;;5031893;28;20025;-60
2022/11/07 12:26:25;;;;;;;7.63;1.00;;;13.60;99.90;;;;;;5023161;28;20041;-60
2022/11/07 12:29:16;;;;;;;8.52;1.70;;;13.60;99.90;;;;;;5022536;28;20116;-60
2022/11/07 12:32:32;;;;;;;4.90;1.10;;;14.00;99.90;;;;;;5030708;28;20102;-60
2022/11/07 12:35:30;;;;;;;8.07;1.13;;;14.10;99.90;;;;;;5038867;28;20037;-60
2022/11/07 12:37:57;;;;;;;3.63;1.05;;;14.00;99.90;;;;;;5030949;28;20048;-60
2022/11/07 12:40:44;;;;;;;4.90;0.80;;;14.00;99.90;;;;;;5029797;28;20038;-60
2022/11/07 12:43:26;;;;;;;11.23;1.83;;;13.90;99.90;;;;;;5011679;28;20022;-61
2022/11/07 12:45:56;;;;;;;3.08;0.95;;;13.80;99.90;;;;;;5026707;28;20041;-60
2022/11/07 12:48:47;;;;;;;4.25;0.90;;;13.80;99.90;;;;;;5039018;28;20026;-60
2022/11/07 12:51:57;;;;;;;4.68;1.08;;;14.00;99.90;;;;;;5033304;28;20033;-60
2022/11/07 12:54:48;;;;;;;6.28;1.05;;;14.20;99.90;;;;;;5050771;28;20041;-61
2022/11/07 12:57:30;;;;;;;4.95;1.05;;;14.20;99.90;;;;;;5032308;28;20393;-60
2022/11/07 13:00:27;;;;;;;3.88;1.00;;;14.00;99.90;;;;;;5031336;28;20056;-60
2022/11/07 13:03:20;;;;;;;4.35;0.80;;;13.90;99.90;;;;;;5032034;28;20664;-61
2022/11/07 13:05:59;;;;;;;3.58;0.93;;;13.80;99.90;;;;;;5031463;28;20120;-61
2022/11/07 13:08:41;;;;;;;5.68;1.02;;;13.70;99.90;;;;;;5029666;28;20250;-60
2022/11/07 13:11:26;;;;;;;4.15;0.98;;;13.60;99.90;;;;;;5031458;28;20029;-60
2022/11/07 13:14:15;;;;;;;10.13;1.38;;;13.60;99.90;;;;;;5030926;28;20065;-60
2022/11/07 13:16:53;;;;;;;9.93;1.33;;;13.50;99.90;;;;;;5021179;28;20014;-60
2022/11/07 13:19:33;;;;;;;6.13;1.10;;;13.50;99.90;;;;;;5031452;28;20029;-60
2022/11/07 13:22:02;;;;;;;8.18;2.70;;;13.80;99.90;;;;;;5032427;28;20033;-60
2022/11/07 13:24:30;;;;;;;8.50;1.30;;;14.00;99.90;;;;;;5031338;28;20061;-60
2022/11/07 13:26:58;;;;;;;8.35;1.00;;;13.90;99.90;;;;;;5043928;28;20116;-60